Time;durP1;ratioP1;P1;durP2;ratioP2;P2;SDS_P1;SDS_P2;PMS_P1;PMS_P2;Temp;Humidity;BMP_temperature;BMP_pressure;BME280_temperature;BME280_humidity;BME280_pressure;Samples;Min_cycle;Max_cycle;Signal;HPM_P1;HPM_P2
2023/06/06 01:06:39;;;;;;;11.13;4.30;;;11.00;99.90;;;;;;1925389;72;27105;-90
2023/06/06 01:24:20;;;;;;;11.47;4.40;;;10.80;99.90;;;;;;1990454;71;27062;-90
2023/06/06 01:27:10;;;;;;;15.73;4.40;;;10.70;99.90;;;;;;2029894;70;25239;-90
2023/06/06 02:18:44;;;;;;;16.77;5.83;;;9.90;99.90;;;;;;1978136;71;26918;-92
2023/06/06 02:21:34;;;;;;;13.60;5.80;;;9.80;99.90;;;;;;2005197;69;25222;-92
2023/06/06 02:24:24;;;;;;;12.87;5.17;;;9.70;99.90;;;;;;1999250;70;25291;-89
2023/06/06 02:27:15;;;;;;;13.57;5.50;;;9.60;99.90;;;;;;2019796;70;25220;-89
2023/06/06 02:30:08;;;;;;;11.90;5.33;;;9.60;99.90;;;;;;2010506;70;25132;-89
2023/06/06 02:32:59;;;;;;;13.03;5.73;;;9.50;99.90;;;;;;2023691;70;25299;-89
2023/06/06 02:35:50;;;;;;;12.03;5.67;;;9.40;99.90;;;;;;2000111;70;25221;-89
2023/06/06 02:38:41;;;;;;;14.33;5.60;;;9.50;99.90;;;;;;2006293;70;25287;-89
2023/06/06 02:41:31;;;;;;;13.47;6.33;;;9.50;99.90;;;;;;2003333;70;25415;-89
2023/06/06 02:44:23;;;;;;;19.07;6.23;;;9.50;99.90;;;;;;1992808;70;25273;-89
2023/06/06 02:47:14;;;;;;;12.90;5.77;;;9.40;99.90;;;;;;1988294;71;25206;-89
2023/06/06 04:56:13;;;;;;;16.77;7.00;;;16.10;99.90;;;;;;2014856;69;26356;-89
2023/06/06 04:59:06;;;;;;;11.73;7.20;;;15.90;99.90;;;;;;1944886;72;25216;-89
2023/06/06 05:01:56;;;;;;;10.87;6.90;;;16.00;99.90;;;;;;1918554;74;25173;-89
2023/06/06 05:04:46;;;;;;;25.00;7.97;;;15.80;99.90;;;;;;1915159;74;25333;-89
2023/06/06 05:07:38;;;;;;;25.50;8.90;;;15.00;99.90;;;;;;1917035;74;25220;-90
2023/06/06 05:10:29;;;;;;;16.37;7.90;;;14.40;99.90;;;;;;1915994;74;25257;-90
2023/06/06 05:13:20;;;;;;;14.60;8.23;;;14.30;99.90;;;;;;1954816;73;25666;-90
2023/06/06 11:34:17;;;;;;;13.73;5.47;;;19.90;99.90;;;;;;1935626;72;27011;-89
2023/06/06 11:37:08;;;;;;;10.97;5.10;;;19.90;99.90;;;;;;1860742;76;25264;-90
2023/06/06 11:39:58;;;;;;;9.67;5.50;;;19.90;99.90;;;;;;1846662;76;25370;-90
2023/06/06 11:45:26;;;;;;;8.97;5.20;;;20.00;99.90;;;;;;1930744;72;27030;-89
2023/06/06 11:48:25;;;;;;;14.47;5.80;;;20.10;99.90;;;;;;1902153;75;25229;-90
2023/06/06 11:51:15;;;;;;;12.17;5.30;;;20.30;99.90;;;;;;1897317;75;25296;-89
2023/06/06 11:54:13;;;;;;;10.43;5.13;;;20.50;99.90;;;;;;1899817;75;25282;-89
2023/06/06 11:57:04;;;;;;;8.97;4.83;;;20.40;99.90;;;;;;1889042;75;25364;-90
2023/06/06 11:59:59;;;;;;;7.43;5.07;;;20.50;99.90;;;;;;1904316;75;25686;-90
2023/06/06 12:06:09;;;;;;;12.03;5.50;;;20.40;99.90;;;;;;1973274;71;26334;-89
2023/06/06 12:08:58;;;;;;;11.13;4.93;;;20.50;99.90;;;;;;1987825;72;25178;-90
2023/06/06 12:11:56;;;;;;;9.77;4.93;;;20.50;99.90;;;;;;1989493;70;25167;-92
2023/06/06 12:14:46;;;;;;;12.03;5.30;;;20.40;99.90;;;;;;1988300;70;25254;-89
2023/06/06 12:17:34;;;;;;;10.80;5.23;;;20.40;99.90;;;;;;1981477;72;25216;-90
2023/06/06 12:23:28;;;;;;;8.83;5.30;;;20.60;99.90;;;;;;1956106;72;27438;-90
2023/06/06 12:26:18;;;;;;;9.10;5.17;;;20.70;99.90;;;;;;1942865;72;25159;-89
2023/06/06 12:31:51;;;;;;;11.50;5.67;;;21.10;99.90;;;;;;1935661;72;27060;-89
2023/06/06 12:34:48;;;;;;;12.43;5.87;;;20.70;99.90;;;;;;1896844;75;25188;-90
2023/06/06 12:37:44;;;;;;;15.73;5.57;;;20.70;99.90;;;;;;1900062;75;25364;-91
2023/06/06 12:43:27;;;;;;;11.00;5.37;;;20.90;99.90;;;;;;1955331;72;27343;-90
2023/06/06 12:49:03;;;;;;;9.87;5.67;;;20.70;99.90;;;;;;1962013;72;26662;-90
2023/06/06 12:51:52;;;;;;;11.43;5.40;;;20.70;99.90;;;;;;1960692;72;25192;-89
2023/06/06 12:54:41;;;;;;;11.60;5.60;;;20.90;99.90;;;;;;1943669;73;25225;-89
2023/06/06 12:57:30;;;;;;;15.13;5.60;;;20.80;99.90;;;;;;1940007;72;25229;-89
2023/06/06 13:00:20;;;;;;;10.30;5.40;;;20.70;99.90;;;;;;1947396;72;25212;-90
2023/06/06 13:03:10;;;;;;;12.07;6.40;;;20.70;99.90;;;;;;1943917;73;25299;-90
2023/06/06 13:05:58;;;;;;;9.13;5.37;;;20.60;99.90;;;;;;1952138;72;25484;-89
2023/06/06 13:08:47;;;;;;;8.17;5.20;;;20.60;99.90;;;;;;1951415;72;25258;-90
2023/06/06 13:11:36;;;;;;;11.50;5.17;;;20.70;99.90;;;;;;1952213;72;25784;-90
2023/06/06 13:17:03;;;;;;;8.27;4.70;;;20.80;99.90;;;;;;1926476;72;26702;-91
2023/06/06 13:19:52;;;;;;;12.50;5.70;;;20.70;99.90;;;;;;1900203;74;25290;-90
2023/06/06 13:25:25;;;;;;;11.40;4.77;;;20.70;99.90;;;;;;1942119;72;26966;-89
2023/06/06 13:28:14;;;;;;;10.50;4.77;;;20.70;99.90;;;;;;1935763;72;25214;-89
2023/06/06 13:31:03;;;;;;;10.57;4.83;;;20.70;99.90;;;;;;1929251;73;25729;-89
2023/06/06 13:33:52;;;;;;;11.83;5.10;;;20.80;99.90;;;;;;1932932;72;25778;-90
2023/06/06 13:36:41;;;;;;;10.87;4.97;;;21.00;99.90;;;;;;1934026;72;25313;-90
2023/06/06 13:39:30;;;;;;;10.57;5.37;;;21.20;99.90;;;;;;1935566;73;25772;-90
2023/06/06 13:42:20;;;;;;;10.53;4.80;;;21.40;99.90;;;;;;1916224;73;25253;-90
2023/06/06 13:45:12;;;;;;;10.67;5.60;;;21.60;99.90;;;;;;1917381;73;25183;-90
2023/06/06 13:48:01;;;;;;;9.97;4.83;;;21.70;99.90;;;;;;1920170;73;25305;-90
2023/06/06 13:56:30;;;;;;;12.87;5.47;;;21.50;99.90;;;;;;2043124;68;26219;-89
2023/06/06 14:02:11;;;;;;;14.30;5.40;;;21.50;99.90;;;;;;1947140;72;27613;-89
2023/06/06 14:21:20;;;;;;;10.17;5.17;;;21.50;99.90;;;;;;1920635;74;29278;-88
2023/06/06 14:24:31;;;;;;;11.43;5.07;;;21.50;99.90;;;;;;1890900;75;25222;-88
2023/06/06 14:27:20;;;;;;;17.60;5.00;;;21.70;99.90;;;;;;1893525;75;25679;-87
2023/06/06 14:30:11;;;;;;;10.63;5.27;;;21.70;99.90;;;;;;1900095;75;25208;-88
2023/06/06 14:33:03;;;;;;;12.90;5.27;;;21.90;99.90;;;;;;1895620;75;25225;-88
2023/06/06 14:36:00;;;;;;;11.23;4.93;;;22.10;99.90;;;;;;1895605;75;25382;-87
2023/06/06 14:38:49;;;;;;;8.57;4.90;;;22.20;99.90;;;;;;1895533;75;25410;-86
2023/06/06 14:42:32;;;;;;;14.43;5.17;;;22.30;99.90;;;;;;1891357;75;25266;-89
2023/06/06 14:48:07;;;;;;;10.33;5.13;;;22.00;99.90;;;;;;1925523;74;28224;-88
2023/06/06 14:50:56;;;;;;;10.50;4.97;;;22.00;99.90;;;;;;1903363;75;25233;-88
2023/06/06 14:53:45;;;;;;;11.13;5.03;;;22.00;99.90;;;;;;1900897;74;25277;-88
2023/06/06 14:56:33;;;;;;;15.63;5.07;;;22.00;99.90;;;;;;1899004;75;25250;-88
2023/06/06 14:59:22;;;;;;;15.37;5.57;;;21.90;99.90;;;;;;1896300;75;25751;-89
2023/06/06 15:02:11;;;;;;;11.37;4.80;;;22.00;99.90;;;;;;1890574;75;25300;-88
2023/06/06 15:05:00;;;;;;;12.77;5.23;;;22.00;99.90;;;;;;1905105;75;25175;-89
2023/06/06 15:10:34;;;;;;;10.50;5.00;;;21.70;99.90;;;;;;1934773;72;27666;-88
2023/06/06 15:13:23;;;;;;;11.47;4.97;;;21.80;99.90;;;;;;1888119;75;25282;-89
2023/06/06 15:16:12;;;;;;;10.77;5.10;;;22.00;99.90;;;;;;1868364;76;25318;-89
2023/06/06 15:19:01;;;;;;;10.80;5.20;;;22.10;99.90;;;;;;1889317;75;25288;-89
2023/06/06 15:21:50;;;;;;;14.27;4.70;;;22.20;99.90;;;;;;1871687;75;25866;-89
2023/06/06 15:24:39;;;;;;;8.67;4.50;;;22.00;99.90;;;;;;1887681;75;25186;-89
2023/06/06 15:27:31;;;;;;;10.63;5.03;;;22.00;99.90;;;;;;1866502;75;25637;-88
2023/06/06 15:30:19;;;;;;;10.77;4.80;;;22.00;99.90;;;;;;1898543;75;25242;-89
2023/06/06 15:35:48;;;;;;;13.00;5.30;;;21.80;99.90;;;;;;1941714;72;27079;-88
2023/06/06 15:41:18;;;;;;;12.00;5.07;;;22.10;99.90;;;;;;1918176;72;27161;-89
2023/06/06 15:44:08;;;;;;;11.50;5.20;;;22.20;99.90;;;;;;1874203;75;25249;-89
2023/06/06 15:46:56;;;;;;;12.97;4.63;;;22.00;99.90;;;;;;1868291;76;25771;-89
2023/06/06 15:49:45;;;;;;;10.57;4.83;;;22.00;99.90;;;;;;1865581;76;25178;-89
2023/06/06 15:55:16;;;;;;;8.93;4.67;;;21.80;99.90;;;;;;1934510;72;26998;-88
2023/06/06 15:58:03;;;;;;;10.17;4.53;;;21.70;99.90;;;;;;1904581;73;25232;-88
2023/06/06 16:00:53;;;;;;;11.20;4.83;;;21.90;99.90;;;;;;1905637;73;25998;-88
2023/06/06 16:03:42;;;;;;;10.33;4.87;;;22.20;99.90;;;;;;1900604;73;25607;-88
2023/06/06 16:06:31;;;;;;;9.37;4.67;;;22.40;99.90;;;;;;1913121;73;25305;-88
2023/06/06 16:09:19;;;;;;;11.33;5.37;;;22.40;99.90;;;;;;1898180;73;25275;-88
2023/06/06 16:14:53;;;;;;;8.47;4.50;;;22.30;99.90;;;;;;1926878;72;27643;-88
2023/06/06 16:17:41;;;;;;;9.63;4.60;;;22.40;99.90;;;;;;1901737;74;25236;-87
2023/06/06 16:20:30;;;;;;;10.10;4.80;;;22.30;99.90;;;;;;1866339;76;25236;-91
2023/06/06 16:23:20;;;;;;;11.63;4.87;;;22.20;99.90;;;;;;1878506;76;25709;-90
2023/06/06 16:26:08;;;;;;;12.43;4.50;;;22.30;99.90;;;;;;1840518;78;25270;-89
2023/06/06 16:28:57;;;;;;;12.27;5.00;;;22.30;99.90;;;;;;1831822;77;25277;-89
2023/06/06 16:31:45;;;;;;;8.97;5.13;;;22.40;99.90;;;;;;1826393;78;25872;-90
2023/06/06 16:34:34;;;;;;;8.50;4.80;;;22.30;99.90;;;;;;1822389;78;25338;-90
2023/06/06 16:37:23;;;;;;;7.87;4.40;;;22.20;99.90;;;;;;1832057;77;25348;-89
2023/06/06 16:40:14;;;;;;;10.90;4.83;;;22.10;99.90;;;;;;1907379;75;25291;-89
2023/06/06 16:43:02;;;;;;;11.30;4.60;;;22.00;99.90;;;;;;1885703;75;25178;-89
2023/06/06 16:48:42;;;;;;;7.87;4.60;;;22.00;99.90;;;;;;1937056;72;27124;-88
2023/06/06 16:51:31;;;;;;;10.70;4.70;;;22.00;99.90;;;;;;1916251;75;25235;-88
2023/06/06 16:54:21;;;;;;;13.60;5.27;;;22.00;99.90;;;;;;1909600;75;25179;-88
2023/06/06 16:57:10;;;;;;;11.47;4.90;;;22.00;99.90;;;;;;1906726;73;25313;-88
2023/06/06 16:59:58;;;;;;;9.97;4.47;;;22.10;99.90;;;;;;1920424;73;25258;-88
2023/06/06 17:02:48;;;;;;;9.07;4.63;;;22.10;99.90;;;;;;1905848;75;25300;-88
2023/06/06 17:05:37;;;;;;;13.37;4.80;;;22.00;99.90;;;;;;1852001;76;25722;-88
2023/06/06 17:08:27;;;;;;;11.10;4.93;;;22.10;99.90;;;;;;1892341;75;25231;-88
2023/06/06 17:11:16;;;;;;;13.10;4.90;;;22.20;99.90;;;;;;1899580;75;25240;-88
2023/06/06 17:14:05;;;;;;;8.57;4.13;;;22.20;99.90;;;;;;1904547;75;25286;-88
2023/06/06 17:16:54;;;;;;;12.10;4.67;;;22.20;99.90;;;;;;1895053;73;25240;-88
2023/06/06 17:19:43;;;;;;;8.83;4.40;;;22.20;99.90;;;;;;1892817;75;25292;-88
2023/06/06 17:22:32;;;;;;;12.00;4.70;;;22.30;99.90;;;;;;1894642;75;25274;-88
2023/06/06 17:25:21;;;;;;;17.83;7.80;;;22.40;99.90;;;;;;1909359;74;25226;-88
2023/06/06 17:28:10;;;;;;;24.17;9.90;;;22.30;99.90;;;;;;1912679;75;25840;-88
2023/06/06 17:30:59;;;;;;;9.87;4.40;;;22.20;99.90;;;;;;1905217;75;25172;-87
2023/06/06 17:33:48;;;;;;;7.30;3.90;;;22.10;99.90;;;;;;1911473;73;25234;-88
2023/06/06 17:36:36;;;;;;;9.87;4.40;;;22.00;99.90;;;;;;1897638;75;25794;-88
2023/06/06 17:39:26;;;;;;;11.07;4.17;;;22.00;99.90;;;;;;1900769;75;25250;-88
2023/06/06 17:42:16;;;;;;;7.77;4.20;;;22.00;99.90;;;;;;1892871;75;25214;-88
2023/06/06 17:47:45;;;;;;;7.40;3.83;;;21.60;99.90;;;;;;2026432;69;27536;-88
2023/06/06 17:50:34;;;;;;;7.60;4.30;;;21.60;99.90;;;;;;2009218;70;25701;-88
2023/06/06 17:53:22;;;;;;;14.93;4.63;;;21.50;99.90;;;;;;2010904;70;25254;-88
2023/06/06 17:56:11;;;;;;;10.80;3.97;;;21.30;99.90;;;;;;2018440;70;25205;-88
2023/06/06 17:59:00;;;;;;;6.60;3.77;;;21.20;99.90;;;;;;2013751;70;25261;-88
2023/06/06 18:01:49;;;;;;;10.47;3.93;;;20.90;99.90;;;;;;2000446;70;25144;-88
2023/06/06 18:04:38;;;;;;;6.50;3.83;;;20.80;99.90;;;;;;2006021;70;25191;-88
2023/06/06 18:07:27;;;;;;;10.37;4.03;;;20.70;99.90;;;;;;2004113;70;25244;-88
2023/06/06 18:10:17;;;;;;;8.03;4.33;;;20.70;99.90;;;;;;2010210;70;25293;-88
2023/06/06 18:13:06;;;;;;;9.57;4.00;;;20.70;99.90;;;;;;2002435;70;25213;-88
2023/06/06 18:15:54;;;;;;;10.40;4.43;;;20.80;99.90;;;;;;2009797;70;25543;-89
2023/06/06 18:18:43;;;;;;;9.93;4.10;;;20.90;99.90;;;;;;2001235;70;25220;-89
2023/06/06 18:24:14;;;;;;;8.53;3.93;;;20.70;99.90;;;;;;1894649;74;27099;-88
2023/06/06 18:27:05;;;;;;;7.37;4.13;;;20.80;99.90;;;;;;1835725;77;25279;-89
2023/06/06 18:32:33;;;;;;;6.27;3.90;;;20.70;99.90;;;;;;1932060;72;27548;-88
2023/06/06 18:35:22;;;;;;;7.60;3.80;;;20.60;99.90;;;;;;1911375;74;25279;-88
2023/06/06 18:38:12;;;;;;;8.10;3.97;;;20.50;99.90;;;;;;1908420;75;25209;-88
2023/06/06 18:43:40;;;;;;;5.90;3.67;;;20.50;99.90;;;;;;1925978;72;27595;-86
2023/06/06 18:46:29;;;;;;;7.37;3.63;;;20.40;99.90;;;;;;1895856;74;25182;-90
2023/06/06 18:49:17;;;;;;;9.40;3.90;;;20.30;99.90;;;;;;1900064;73;25279;-89
2023/06/06 18:52:07;;;;;;;7.50;4.00;;;20.30;99.90;;;;;;1900799;75;25213;-90
2023/06/06 18:54:56;;;;;;;8.50;4.00;;;20.20;99.90;;;;;;1898097;73;25133;-88
2023/06/06 18:57:45;;;;;;;8.20;4.13;;;20.20;99.90;;;;;;1889897;74;25169;-88
2023/06/06 19:00:34;;;;;;;8.03;3.93;;;20.20;99.90;;;;;;1887471;74;25279;-88
2023/06/06 19:03:23;;;;;;;10.87;3.73;;;20.20;99.90;;;;;;1858464;75;25288;-88
2023/06/06 19:08:52;;;;;;;6.77;3.80;;;19.80;99.90;;;;;;1926036;72;27047;-88
2023/06/06 19:11:41;;;;;;;7.50;4.23;;;19.60;99.90;;;;;;1887759;75;25260;-88
2023/06/06 19:14:31;;;;;;;7.50;4.00;;;19.30;99.90;;;;;;1914252;73;25246;-88
2023/06/06 19:17:19;;;;;;;9.83;3.73;;;19.20;99.90;;;;;;1900067;74;26635;-88
2023/06/06 19:20:13;;;;;;;5.97;3.60;;;19.10;99.90;;;;;;1910661;73;25187;-88
2023/06/06 19:23:02;;;;;;;6.10;3.83;;;19.00;99.90;;;;;;1906408;74;25294;-88
2023/06/06 19:28:30;;;;;;;7.73;3.83;;;18.80;99.90;;;;;;1943043;72;27411;-88
2023/06/06 19:31:19;;;;;;;7.60;4.13;;;18.80;99.90;;;;;;1943932;73;25165;-88
2023/06/06 19:34:08;;;;;;;8.10;3.80;;;18.60;99.90;;;;;;1935463;72;25238;-88
2023/06/06 19:36:56;;;;;;;13.43;3.97;;;18.50;99.90;;;;;;1941378;72;25273;-88
2023/06/06 19:39:48;;;;;;;9.03;3.67;;;18.40;99.90;;;;;;1927959;72;25222;-88
2023/06/06 19:45:15;;;;;;;19.83;4.23;;;18.20;99.90;;;;;;1924314;72;27025;-88
2023/06/06 19:48:05;;;;;;;7.87;4.20;;;18.00;99.90;;;;;;1913689;75;25814;-88
2023/06/06 19:50:53;;;;;;;11.97;4.33;;;17.70;99.90;;;;;;1893434;75;25255;-88
2023/06/06 19:53:42;;;;;;;8.40;3.90;;;17.60;99.90;;;;;;1907619;75;25250;-87
2023/06/06 19:56:31;;;;;;;5.80;3.47;;;17.40;99.90;;;;;;1902482;74;25644;-88
2023/06/06 19:59:20;;;;;;;9.30;4.73;;;17.00;99.90;;;;;;1898001;75;25222;-88
2023/06/06 20:02:09;;;;;;;8.90;4.33;;;17.00;99.90;;;;;;1905232;74;25242;-87
2023/06/06 20:07:39;;;;;;;11.00;4.57;;;17.10;99.90;;;;;;1934317;72;27119;-88
2023/06/06 20:10:28;;;;;;;9.97;5.17;;;17.10;99.90;;;;;;1867503;76;25284;-87
2023/06/06 20:13:17;;;;;;;10.30;5.33;;;16.90;99.90;;;;;;1847054;77;25277;-87
2023/06/06 20:16:07;;;;;;;9.50;5.70;;;16.90;99.90;;;;;;1903506;73;25213;-87
2023/06/06 20:18:56;;;;;;;12.50;6.17;;;16.80;99.90;;;;;;1867994;76;25258;-88
2023/06/06 20:21:45;;;;;;;11.80;6.37;;;16.70;99.90;;;;;;1844001;76;25186;-88
2023/06/06 20:24:34;;;;;;;11.13;5.73;;;16.70;99.90;;;;;;1870299;76;25266;-89
2023/06/06 20:27:23;;;;;;;12.77;6.63;;;16.70;99.90;;;;;;1808522;76;25281;-89
2023/06/06 20:30:12;;;;;;;13.03;6.60;;;16.70;99.90;;;;;;1902044;74;25212;-89
2023/06/06 20:33:03;;;;;;;9.63;5.07;;;16.90;99.90;;;;;;1910960;74;25188;-89
2023/06/06 20:35:53;;;;;;;14.20;5.20;;;17.00;99.90;;;;;;1908174;74;25298;-89
2023/06/06 20:38:49;;;;;;;10.20;5.00;;;17.20;99.90;;;;;;1864154;76;26023;-89
2023/06/06 20:41:33;;;;;;;11.37;4.87;;;17.30;99.90;;;;;;1817025;78;25850;-89
2023/06/06 20:44:22;;;;;;;13.70;4.80;;;17.30;99.90;;;;;;1836383;76;25744;-89
2023/06/06 20:47:10;;;;;;;8.93;4.20;;;17.50;99.90;;;;;;1798343;78;25283;-89
2023/06/06 20:50:00;;;;;;;7.73;3.97;;;17.40;99.90;;;;;;1815156;77;25264;-88
2023/06/06 20:52:49;;;;;;;5.53;3.63;;;17.60;99.90;;;;;;1819106;77;25202;-88
2023/06/06 20:55:38;;;;;;;4.57;3.40;;;17.70;99.90;;;;;;1843067;76;25341;-88
2023/06/06 20:58:28;;;;;;;6.13;3.03;;;17.70;99.90;;;;;;1841402;76;25265;-88
2023/06/06 21:01:17;;;;;;;5.10;3.07;;;17.60;99.90;;;;;;1836776;76;25806;-88
2023/06/06 21:04:06;;;;;;;5.70;3.20;;;17.50;99.90;;;;;;1844993;77;25730;-88
2023/06/06 21:06:55;;;;;;;4.60;3.27;;;17.50;99.90;;;;;;1842451;76;25233;-89
2023/06/06 21:12:27;;;;;;;4.93;2.87;;;17.20;99.90;;;;;;1931439;72;26953;-86
2023/06/06 21:15:16;;;;;;;3.07;2.50;;;17.20;99.90;;;;;;1887563;75;25645;-88
2023/06/06 21:18:04;;;;;;;6.10;2.30;;;17.20;99.90;;;;;;1907401;75;25219;-87
2023/06/06 21:20:53;;;;;;;5.30;2.00;;;17.20;99.90;;;;;;1885605;75;25240;-88
2023/06/06 21:23:42;;;;;;;3.27;2.10;;;17.20;99.90;;;;;;1889637;75;25309;-88
2023/06/06 21:26:31;;;;;;;6.53;2.50;;;17.20;99.90;;;;;;1905575;75;25332;-88
2023/06/06 21:29:20;;;;;;;3.33;2.20;;;17.30;99.90;;;;;;1888577;75;25211;-88
2023/06/06 21:32:09;;;;;;;4.27;2.50;;;17.20;99.90;;;;;;1911457;74;25304;-87
2023/06/06 21:34:58;;;;;;;2.10;1.90;;;17.20;99.90;;;;;;1898511;74;25159;-88
2023/06/06 21:37:47;;;;;;;4.10;1.93;;;17.10;99.90;;;;;;1901757;75;25787;-87
2023/06/06 21:40:36;;;;;;;2.37;2.03;;;17.10;99.90;;;;;;1903534;75;25205;-87
2023/06/06 21:43:25;;;;;;;4.43;2.03;;;16.90;99.90;;;;;;1889868;75;25194;-88
2023/06/06 21:46:14;;;;;;;4.33;2.00;;;16.90;99.90;;;;;;1907882;74;25221;-86
2023/06/06 21:49:03;;;;;;;4.73;1.90;;;16.90;99.90;;;;;;1906450;74;25234;-86
2023/06/06 21:54:31;;;;;;;2.30;1.70;;;16.80;99.90;;;;;;2018867;69;26868;-86
2023/06/06 21:57:20;;;;;;;3.33;1.93;;;16.80;99.90;;;;;;1972948;70;25201;-86
2023/06/06 22:00:13;;;;;;;2.13;1.90;;;16.70;99.90;;;;;;1973377;72;25184;-87
2023/06/06 22:03:02;;;;;;;3.00;2.20;;;16.70;99.90;;;;;;1966063;72;25297;-87
2023/06/06 22:05:51;;;;;;;2.20;2.00;;;16.60;99.90;;;;;;1980385;72;25159;-87
2023/06/06 22:08:39;;;;;;;2.60;2.07;;;16.50;99.90;;;;;;1975257;72;25673;-87
2023/06/06 22:11:28;;;;;;;2.53;1.90;;;16.50;99.90;;;;;;1968156;72;25261;-87
2023/06/06 22:14:16;;;;;;;6.03;2.10;;;16.40;99.90;;;;;;1967962;72;25337;-87
2023/06/06 22:17:05;;;;;;;2.60;1.80;;;16.40;99.90;;;;;;1975097;72;25144;-87
2023/06/06 22:19:55;;;;;;;2.40;1.80;;;16.40;99.90;;;;;;1981663;72;25196;-87
2023/06/06 22:22:44;;;;;;;2.10;1.90;;;16.30;99.90;;;;;;1989661;72;25144;-86
2023/06/06 22:25:32;;;;;;;2.57;1.70;;;16.40;99.90;;;;;;1971608;72;25217;-87
2023/06/06 22:28:22;;;;;;;2.40;1.87;;;16.30;99.90;;;;;;1968935;72;25306;-87
2023/06/06 22:33:54;;;;;;;3.47;1.37;;;16.30;99.90;;;;;;1930643;72;27089;-86
2023/06/06 22:36:43;;;;;;;2.73;1.70;;;16.20;99.90;;;;;;1901651;74;25278;-86
2023/06/06 22:39:32;;;;;;;5.60;1.73;;;16.20;99.90;;;;;;1893164;75;25233;-86
2023/06/06 22:45:02;;;;;;;2.90;1.60;;;16.00;99.90;;;;;;1919053;72;27054;-86
2023/06/06 22:47:51;;;;;;;2.63;1.67;;;16.00;99.90;;;;;;1900356;74;25305;-86
2023/06/06 22:50:40;;;;;;;1.87;1.70;;;15.90;99.90;;;;;;1906293;74;25274;-86
2023/06/06 22:53:29;;;;;;;4.23;1.87;;;15.90;99.90;;;;;;1866800;76;25297;-86
2023/06/06 22:56:19;;;;;;;2.60;1.60;;;15.80;99.90;;;;;;1907740;74;25320;-86
2023/06/06 22:59:07;;;;;;;2.90;1.60;;;15.70;99.90;;;;;;1904555;75;25628;-86
2023/06/06 23:01:56;;;;;;;2.53;1.57;;;15.70;99.90;;;;;;1888207;74;25488;-86
2023/06/06 23:04:45;;;;;;;3.80;1.50;;;15.60;99.90;;;;;;1826912;77;25272;-86
2023/06/06 23:07:34;;;;;;;4.37;1.60;;;15.50;99.90;;;;;;1905504;75;25770;-86
2023/06/06 23:10:23;;;;;;;2.93;1.50;;;15.50;99.90;;;;;;1903797;75;25207;-86
2023/06/06 23:13:12;;;;;;;2.47;1.77;;;15.50;99.90;;;;;;1902982;74;25272;-86
2023/06/06 23:18:52;;;;;;;5.30;1.60;;;15.30;99.90;;;;;;2023671;69;27491;-86
2023/06/06 23:21:40;;;;;;;3.23;1.30;;;15.30;99.90;;;;;;2022246;70;25208;-86
2023/06/06 23:24:29;;;;;;;2.63;1.47;;;15.20;99.90;;;;;;2018500;71;25240;-86
2023/06/06 23:27:17;;;;;;;5.43;1.50;;;15.20;99.90;;;;;;2025063;70;25756;-86
2023/06/06 23:32:50;;;;;;;3.20;1.30;;;15.10;99.90;;;;;;1929635;72;27086;-85
2023/06/06 23:35:39;;;;;;;1.83;1.30;;;15.10;99.90;;;;;;1897936;75;25173;-87
2023/06/06 23:38:28;;;;;;;4.10;1.57;;;15.10;99.90;;;;;;1884750;75;25711;-87
2023/06/06 23:41:17;;;;;;;2.27;1.50;;;15.00;99.90;;;;;;1889317;75;25747;-87
2023/06/06 23:46:46;;;;;;;4.50;1.50;;;14.90;99.90;;;;;;1936765;72;27103;-86
2023/06/06 23:52:26;;;;;;;1.77;1.27;;;14.80;99.90;;;;;;1949292;72;26955;-86
2023/06/06 23:55:15;;;;;;;11.23;1.53;;;14.70;99.90;;;;;;1926860;72;25373;-86
2023/06/06 23:58:04;;;;;;;5.17;1.60;;;14.60;99.90;;;;;;1923982;73;25646;-87
